sensor_id;sensor_type;location;lat;lon;timestamp;temperature;humidity
70726;DHT22;58304;53.104;6.022;2022-10-16T00:01:16;12.20;99.90
70726;DHT22;58304;53.104;6.022;2022-10-16T00:03:43;12.20;99.90
70726;DHT22;58304;53.104;6.022;2022-10-16T00:06:10;12.10;99.90
70726;DHT22;58304;53.104;6.022;2022-10-16T00:08:36;12.10;99.90
70726;DHT22;58304;53.104;6.022;2022-10-16T00:11:09;12.10;99.90
70726;DHT22;58304;53.104;6.022;2022-10-16T00:13:37;12.10;99.90
70726;DHT22;58304;53.104;6.022;2022-10-16T00:16:03;12.00;99.90
70726;DHT22;58304;53.104;6.022;2022-10-16T00:18:30;12.00;99.90
70726;DHT22;58304;53.104;6.022;2022-10-16T00:21:01;12.00;99.90
70726;DHT22;58304;53.104;6.022;2022-10-16T00:23:27;12.00;99.90
70726;DHT22;58304;53.104;6.022;2022-10-16T00:26:01;12.00;99.90
70726;DHT22;58304;53.104;6.022;2022-10-16T00:28:28;12.00;99.90
70726;DHT22;58304;53.104;6.022;2022-10-16T00:30:54;12.00;99.90
70726;DHT22;58304;53.104;6.022;2022-10-16T00:33:20;12.00;99.90
70726;DHT22;58304;53.104;6.022;2022-10-16T00:35:45;12.10;99.90
70726;DHT22;58304;53.104;6.022;2022-10-16T00:38:11;12.10;99.90
70726;DHT22;58304;53.104;6.022;2022-10-16T00:40:36;12.20;99.90
70726;DHT22;58304;53.104;6.022;2022-10-16T00:43:02;12.20;99.90
70726;DHT22;58304;53.104;6.022;2022-10-16T00:45:28;12.20;99.90
70726;DHT22;58304;53.104;6.022;2022-10-16T00:47:55;12.20;99.90
70726;DHT22;58304;53.104;6.022;2022-10-16T00:50:33;12.20;99.90
70726;DHT22;58304;53.104;6.022;2022-10-16T00:53:00;12.30;99.90
70726;DHT22;58304;53.104;6.022;2022-10-16T00:55:27;12.30;99.90
70726;DHT22;58304;53.104;6.022;2022-10-16T00:57:55;12.30;99.90
70726;DHT22;58304;53.104;6.022;2022-10-16T01:00:24;12.30;99.90
70726;DHT22;58304;53.104;6.022;2022-10-16T01:03:00;12.30;99.90
70726;DHT22;58304;53.104;6.022;2022-10-16T01:05:33;12.40;99.90
70726;DHT22;58304;53.104;6.022;2022-10-16T01:08:13;12.40;99.90
70726;DHT22;58304;53.104;6.022;2022-10-16T01:10:57;12.40;99.90
70726;DHT22;58304;53.104;6.022;2022-10-16T01:13:41;12.40;99.90
70726;DHT22;58304;53.104;6.022;2022-10-16T01:16:20;12.30;99.90
70726;DHT22;58304;53.104;6.022;2022-10-16T01:18:56;12.40;99.90
70726;DHT22;58304;53.104;6.022;2022-10-16T01:21:29;12.40;99.90
70726;DHT22;58304;53.104;6.022;2022-10-16T01:27:21;12.40;99.90
70726;DHT22;58304;53.104;6.022;2022-10-16T01:30:10;12.50;99.90
70726;DHT22;58304;53.104;6.022;2022-10-16T01:32:50;12.50;99.90
70726;DHT22;58304;53.104;6.022;2022-10-16T01:35:25;12.40;99.90
70726;DHT22;58304;53.104;6.022;2022-10-16T01:37:53;12.50;99.90
70726;DHT22;58304;53.104;6.022;2022-10-16T01:40:20;12.50;99.90
70726;DHT22;58304;53.104;6.022;2022-10-16T01:42:56;12.50;99.90
70726;DHT22;58304;53.104;6.022;2022-10-16T01:45:24;12.50;99.90
70726;DHT22;58304;53.104;6.022;2022-10-16T01:47:50;12.50;99.90
70726;DHT22;58304;53.104;6.022;2022-10-16T01:50:18;12.50;99.90
70726;DHT22;58304;53.104;6.022;2022-10-16T01:52:47;12.50;99.90
70726;DHT22;58304;53.104;6.022;2022-10-16T01:55:19;12.50;99.90
70726;DHT22;58304;53.104;6.022;2022-10-16T01:57:47;12.60;99.90
70726;DHT22;58304;53.104;6.022;2022-10-16T02:00:16;12.60;99.90
70726;DHT22;58304;53.104;6.022;2022-10-16T02:02:45;12.60;99.90
70726;DHT22;58304;53.104;6.022;2022-10-16T02:05:26;12.60;99.90
70726;DHT22;58304;53.104;6.022;2022-10-16T02:07:53;12.70;99.90
70726;DHT22;58304;53.104;6.022;2022-10-16T02:10:19;12.60;99.90
70726;DHT22;58304;53.104;6.022;2022-10-16T02:12:50;12.70;99.90
70726;DHT22;58304;53.104;6.022;2022-10-16T02:15:16;12.60;99.90
70726;DHT22;58304;53.104;6.022;2022-10-16T02:17:42;12.60;99.90
70726;DHT22;58304;53.104;6.022;2022-10-16T02:20:08;12.60;99.90
70726;DHT22;58304;53.104;6.022;2022-10-16T02:22:38;12.70;99.90
70726;DHT22;58304;53.104;6.022;2022-10-16T02:25:22;12.60;99.90
70726;DHT22;58304;53.104;6.022;2022-10-16T02:28:08;12.60;99.90
70726;DHT22;58304;53.104;6.022;2022-10-16T02:30:36;12.60;99.90
70726;DHT22;58304;53.104;6.022;2022-10-16T02:33:04;12.60;99.90
70726;DHT22;58304;53.104;6.022;2022-10-16T02:35:32;12.60;99.90
70726;DHT22;58304;53.104;6.022;2022-10-16T02:37:58;12.60;99.90
70726;DHT22;58304;53.104;6.022;2022-10-16T02:40:24;12.60;99.90
70726;DHT22;58304;53.104;6.022;2022-10-16T02:42:51;12.50;99.90
70726;DHT22;58304;53.104;6.022;2022-10-16T02:45:18;12.50;99.90
70726;DHT22;58304;53.104;6.022;2022-10-16T02:47:44;12.50;99.90
70726;DHT22;58304;53.104;6.022;2022-10-16T02:50:10;12.50;99.90
70726;DHT22;58304;53.104;6.022;2022-10-16T02:52:37;12.40;99.90
70726;DHT22;58304;53.104;6.022;2022-10-16T02:55:02;12.40;99.90
70726;DHT22;58304;53.104;6.022;2022-10-16T02:57:28;12.30;99.90
70726;DHT22;58304;53.104;6.022;2022-10-16T02:59:54;12.20;99.90
70726;DHT22;58304;53.104;6.022;2022-10-16T03:02:19;12.20;99.90
70726;DHT22;58304;53.104;6.022;2022-10-16T03:04:45;12.20;99.90
70726;DHT22;58304;53.104;6.022;2022-10-16T03:07:11;12.20;99.90
70726;DHT22;58304;53.104;6.022;2022-10-16T03:09:36;12.10;99.90
70726;DHT22;58304;53.104;6.022;2022-10-16T03:12:02;12.10;99.90
70726;DHT22;58304;53.104;6.022;2022-10-16T03:14:28;12.10;99.90
70726;DHT22;58304;53.104;6.022;2022-10-16T03:16:53;12.10;99.90
70726;DHT22;58304;53.104;6.022;2022-10-16T03:19:19;12.10;99.90
70726;DHT22;58304;53.104;6.022;2022-10-16T03:21:45;12.10;99.90
70726;DHT22;58304;53.104;6.022;2022-10-16T03:24:11;12.10;99.90
70726;DHT22;58304;53.104;6.022;2022-10-16T03:26:37;12.10;99.90
70726;DHT22;58304;53.104;6.022;2022-10-16T03:29:03;12.20;99.90
70726;DHT22;58304;53.104;6.022;2022-10-16T03:31:29;12.20;99.90
70726;DHT22;58304;53.104;6.022;2022-10-16T03:33:55;12.10;99.90
70726;DHT22;58304;53.104;6.022;2022-10-16T03:36:21;12.10;99.90
70726;DHT22;58304;53.104;6.022;2022-10-16T03:38:47;12.10;99.90
70726;DHT22;58304;53.104;6.022;2022-10-16T03:41:12;12.00;99.90
70726;DHT22;58304;53.104;6.022;2022-10-16T03:43:38;12.00;99.90
70726;DHT22;58304;53.104;6.022;2022-10-16T03:46:03;12.00;99.90
70726;DHT22;58304;53.104;6.022;2022-10-16T03:48:29;11.90;99.90
70726;DHT22;58304;53.104;6.022;2022-10-16T03:50:55;11.90;99.90
70726;DHT22;58304;53.104;6.022;2022-10-16T03:53:20;11.90;99.90
70726;DHT22;58304;53.104;6.022;2022-10-16T03:55:46;11.90;99.90
70726;DHT22;58304;53.104;6.022;2022-10-16T03:58:12;11.90;99.90
70726;DHT22;58304;53.104;6.022;2022-10-16T04:00:45;11.90;99.90
70726;DHT22;58304;53.104;6.022;2022-10-16T04:03:11;11.90;99.90
70726;DHT22;58304;53.104;6.022;2022-10-16T04:05:37;11.90;99.90
70726;DHT22;58304;53.104;6.022;2022-10-16T04:08:04;11.90;99.90
70726;DHT22;58304;53.104;6.022;2022-10-16T04:10:29;12.00;99.90
70726;DHT22;58304;53.104;6.022;2022-10-16T04:12:55;11.90;99.90
70726;DHT22;58304;53.104;6.022;2022-10-16T04:15:25;11.90;99.90
70726;DHT22;58304;53.104;6.022;2022-10-16T04:17:51;11.90;99.90
70726;DHT22;58304;53.104;6.022;2022-10-16T04:20:17;12.00;99.90
70726;DHT22;58304;53.104;6.022;2022-10-16T04:22:43;12.00;99.90
70726;DHT22;58304;53.104;6.022;2022-10-16T04:25:08;12.10;99.90
70726;DHT22;58304;53.104;6.022;2022-10-16T04:27:34;12.20;99.90
70726;DHT22;58304;53.104;6.022;2022-10-16T04:30:00;12.20;99.90
70726;DHT22;58304;53.104;6.022;2022-10-16T04:32:26;12.30;99.90
70726;DHT22;58304;53.104;6.022;2022-10-16T04:34:52;12.30;99.90
70726;DHT22;58304;53.104;6.022;2022-10-16T04:37:18;12.40;99.90
70726;DHT22;58304;53.104;6.022;2022-10-16T04:39:43;12.50;99.90
70726;DHT22;58304;53.104;6.022;2022-10-16T04:42:10;12.50;99.90
70726;DHT22;58304;53.104;6.022;2022-10-16T04:44:36;12.50;99.90
70726;DHT22;58304;53.104;6.022;2022-10-16T04:47:02;12.50;99.90
70726;DHT22;58304;53.104;6.022;2022-10-16T04:49:27;12.50;99.90
70726;DHT22;58304;53.104;6.022;2022-10-16T04:51:53;12.60;99.90
70726;DHT22;58304;53.104;6.022;2022-10-16T04:54:18;12.50;99.90
70726;DHT22;58304;53.104;6.022;2022-10-16T04:56:44;12.50;99.90
70726;DHT22;58304;53.104;6.022;2022-10-16T04:59:16;12.60;99.90
70726;DHT22;58304;53.104;6.022;2022-10-16T05:01:43;12.60;99.90
70726;DHT22;58304;53.104;6.022;2022-10-16T05:04:09;12.60;99.90
70726;DHT22;58304;53.104;6.022;2022-10-16T05:06:35;12.60;99.90
70726;DHT22;58304;53.104;6.022;2022-10-16T05:09:01;12.60;99.90
70726;DHT22;58304;53.104;6.022;2022-10-16T05:11:27;12.60;99.90
70726;DHT22;58304;53.104;6.022;2022-10-16T05:13:53;12.60;99.90
70726;DHT22;58304;53.104;6.022;2022-10-16T05:16:18;12.60;99.90
70726;DHT22;58304;53.104;6.022;2022-10-16T05:18:44;12.60;99.90
70726;DHT22;58304;53.104;6.022;2022-10-16T05:21:09;12.60;99.90
70726;DHT22;58304;53.104;6.022;2022-10-16T05:23:35;12.60;99.90
70726;DHT22;58304;53.104;6.022;2022-10-16T05:26:01;12.50;99.90
70726;DHT22;58304;53.104;6.022;2022-10-16T05:28:28;12.60;99.90
70726;DHT22;58304;53.104;6.022;2022-10-16T05:30:54;12.70;99.90
70726;DHT22;58304;53.104;6.022;2022-10-16T05:33:20;12.60;99.90
70726;DHT22;58304;53.104;6.022;2022-10-16T05:35:46;12.60;99.90
70726;DHT22;58304;53.104;6.022;2022-10-16T05:38:12;12.50;99.90
70726;DHT22;58304;53.104;6.022;2022-10-16T05:40:38;12.50;99.90
70726;DHT22;58304;53.104;6.022;2022-10-16T05:43:03;12.50;99.90
70726;DHT22;58304;53.104;6.022;2022-10-16T05:45:29;12.50;99.90
70726;DHT22;58304;53.104;6.022;2022-10-16T05:47:54;12.50;99.90
70726;DHT22;58304;53.104;6.022;2022-10-16T05:50:20;12.60;99.90
70726;DHT22;58304;53.104;6.022;2022-10-16T05:52:46;12.50;99.90
70726;DHT22;58304;53.104;6.022;2022-10-16T05:55:11;12.40;99.90
70726;DHT22;58304;53.104;6.022;2022-10-16T05:57:37;12.40;99.90
70726;DHT22;58304;53.104;6.022;2022-10-16T06:00:03;12.40;99.90
70726;DHT22;58304;53.104;6.022;2022-10-16T06:02:29;12.40;99.90
70726;DHT22;58304;53.104;6.022;2022-10-16T06:04:55;12.50;99.90
70726;DHT22;58304;53.104;6.022;2022-10-16T06:07:21;12.50;99.90
70726;DHT22;58304;53.104;6.022;2022-10-16T06:09:53;12.50;99.90
70726;DHT22;58304;53.104;6.022;2022-10-16T06:12:19;12.50;99.90
70726;DHT22;58304;53.104;6.022;2022-10-16T06:14:45;12.50;99.90
70726;DHT22;58304;53.104;6.022;2022-10-16T06:17:13;12.50;99.90
70726;DHT22;58304;53.104;6.022;2022-10-16T06:19:39;12.60;99.90
70726;DHT22;58304;53.104;6.022;2022-10-16T06:22:05;12.60;99.90
70726;DHT22;58304;53.104;6.022;2022-10-16T06:24:31;12.60;99.90
70726;DHT22;58304;53.104;6.022;2022-10-16T06:26:56;12.60;99.90
70726;DHT22;58304;53.104;6.022;2022-10-16T06:29:22;12.60;99.90
70726;DHT22;58304;53.104;6.022;2022-10-16T06:31:48;12.70;99.90
70726;DHT22;58304;53.104;6.022;2022-10-16T06:34:13;12.70;99.90
70726;DHT22;58304;53.104;6.022;2022-10-16T06:36:39;12.70;99.90
70726;DHT22;58304;53.104;6.022;2022-10-16T06:39:05;12.70;99.90
70726;DHT22;58304;53.104;6.022;2022-10-16T06:41:33;12.70;99.90
70726;DHT22;58304;53.104;6.022;2022-10-16T06:43:59;12.70;99.90
70726;DHT22;58304;53.104;6.022;2022-10-16T06:46:25;12.80;99.90
70726;DHT22;58304;53.104;6.022;2022-10-16T06:48:52;12.70;99.90
70726;DHT22;58304;53.104;6.022;2022-10-16T06:51:20;12.80;99.90
70726;DHT22;58304;53.104;6.022;2022-10-16T06:53:49;12.80;99.90
70726;DHT22;58304;53.104;6.022;2022-10-16T06:56:23;12.80;99.90
70726;DHT22;58304;53.104;6.022;2022-10-16T06:58:50;12.80;99.90
70726;DHT22;58304;53.104;6.022;2022-10-16T07:01:18;12.80;99.90
70726;DHT22;58304;53.104;6.022;2022-10-16T07:03:45;12.90;99.90
70726;DHT22;58304;53.104;6.022;2022-10-16T07:06:16;12.90;99.90
70726;DHT22;58304;53.104;6.022;2022-10-16T07:08:44;12.90;99.90
70726;DHT22;58304;53.104;6.022;2022-10-16T07:11:12;12.90;99.90
70726;DHT22;58304;53.104;6.022;2022-10-16T07:13:40;12.90;99.90
70726;DHT22;58304;53.104;6.022;2022-10-16T07:16:14;12.90;99.90
70726;DHT22;58304;53.104;6.022;2022-10-16T07:18:40;12.90;99.90
70726;DHT22;58304;53.104;6.022;2022-10-16T07:21:10;13.00;99.90
70726;DHT22;58304;53.104;6.022;2022-10-16T07:23:36;13.00;99.90
70726;DHT22;58304;53.104;6.022;2022-10-16T07:26:03;13.00;99.90
70726;DHT22;58304;53.104;6.022;2022-10-16T07:28:29;13.10;99.90
70726;DHT22;58304;53.104;6.022;2022-10-16T07:30:54;13.00;99.90
70726;DHT22;58304;53.104;6.022;2022-10-16T07:33:20;13.00;99.90
70726;DHT22;58304;53.104;6.022;2022-10-16T07:35:54;12.90;99.90
70726;DHT22;58304;53.104;6.022;2022-10-16T07:38:21;13.00;99.90
70726;DHT22;58304;53.104;6.022;2022-10-16T07:40:46;13.00;99.90
70726;DHT22;58304;53.104;6.022;2022-10-16T07:43:14;13.10;99.90
70726;DHT22;58304;53.104;6.022;2022-10-16T07:45:47;13.30;99.90
70726;DHT22;58304;53.104;6.022;2022-10-16T07:48:15;13.30;99.90
70726;DHT22;58304;53.104;6.022;2022-10-16T07:50:40;13.30;99.90
70726;DHT22;58304;53.104;6.022;2022-10-16T07:53:06;13.40;99.90
70726;DHT22;58304;53.104;6.022;2022-10-16T07:55:32;13.40;99.90
70726;DHT22;58304;53.104;6.022;2022-10-16T07:57:58;13.50;99.90
70726;DHT22;58304;53.104;6.022;2022-10-16T08:00:23;13.60;99.90
70726;DHT22;58304;53.104;6.022;2022-10-16T08:02:49;13.60;99.90
70726;DHT22;58304;53.104;6.022;2022-10-16T08:05:14;13.70;99.90
70726;DHT22;58304;53.104;6.022;2022-10-16T08:07:40;13.70;99.90
70726;DHT22;58304;53.104;6.022;2022-10-16T08:10:06;13.80;99.90
70726;DHT22;58304;53.104;6.022;2022-10-16T08:12:31;13.80;99.90
70726;DHT22;58304;53.104;6.022;2022-10-16T08:14:57;13.80;99.90
70726;DHT22;58304;53.104;6.022;2022-10-16T08:17:22;13.80;99.90
70726;DHT22;58304;53.104;6.022;2022-10-16T08:19:48;13.90;99.90
70726;DHT22;58304;53.104;6.022;2022-10-16T08:22:14;14.10;99.90
70726;DHT22;58304;53.104;6.022;2022-10-16T08:24:40;14.20;99.90
70726;DHT22;58304;53.104;6.022;2022-10-16T08:27:06;14.20;99.90
70726;DHT22;58304;53.104;6.022;2022-10-16T08:29:32;14.40;99.90
70726;DHT22;58304;53.104;6.022;2022-10-16T08:31:58;14.60;99.90
70726;DHT22;58304;53.104;6.022;2022-10-16T08:34:24;14.80;99.90
70726;DHT22;58304;53.104;6.022;2022-10-16T08:36:49;15.10;99.90
70726;DHT22;58304;53.104;6.022;2022-10-16T08:39:15;15.10;99.90
70726;DHT22;58304;53.104;6.022;2022-10-16T08:44:22;15.80;99.90
70726;DHT22;58304;53.104;6.022;2022-10-16T08:49:16;18.50;99.90
70726;DHT22;58304;53.104;6.022;2022-10-16T08:51:43;19.20;99.90
70726;DHT22;58304;53.104;6.022;2022-10-16T08:54:31;20.00;99.90
70726;DHT22;58304;53.104;6.022;2022-10-16T08:57:17;20.70;99.90
70726;DHT22;58304;53.104;6.022;2022-10-16T08:59:44;20.80;99.90
70726;DHT22;58304;53.104;6.022;2022-10-16T09:07:37;21.60;99.90
70726;DHT22;58304;53.104;6.022;2022-10-16T09:15:31;21.10;99.90
70726;DHT22;58304;53.104;6.022;2022-10-16T09:18:15;21.70;99.90
70726;DHT22;58304;53.104;6.022;2022-10-16T09:20:58;22.40;99.90
70726;DHT22;58304;53.104;6.022;2022-10-16T09:23:34;22.90;99.90
70726;DHT22;58304;53.104;6.022;2022-10-16T09:26:00;23.60;99.90
70726;DHT22;58304;53.104;6.022;2022-10-16T09:28:27;24.00;99.90
70726;DHT22;58304;53.104;6.022;2022-10-16T09:30:53;24.40;99.90
70726;DHT22;58304;53.104;6.022;2022-10-16T09:33:21;24.70;99.90
70726;DHT22;58304;53.104;6.022;2022-10-16T09:35:53;25.10;99.90
70726;DHT22;58304;53.104;6.022;2022-10-16T09:40:57;25.70;99.90
70726;DHT22;58304;53.104;6.022;2022-10-16T09:44:01;25.60;99.90
70726;DHT22;58304;53.104;6.022;2022-10-16T09:46:31;25.70;99.90
70726;DHT22;58304;53.104;6.022;2022-10-16T09:49:03;25.70;99.90
70726;DHT22;58304;53.104;6.022;2022-10-16T09:51:30;26.00;99.90
70726;DHT22;58304;53.104;6.022;2022-10-16T09:54:02;26.20;99.80
70726;DHT22;58304;53.104;6.022;2022-10-16T09:56:32;26.20;98.70
70726;DHT22;58304;53.104;6.022;2022-10-16T09:59:01;26.10;99.70
70726;DHT22;58304;53.104;6.022;2022-10-16T10:01:40;26.50;99.60
70726;DHT22;58304;53.104;6.022;2022-10-16T10:04:07;26.80;98.20
70726;DHT22;58304;53.104;6.022;2022-10-16T10:06:35;27.10;99.20
70726;DHT22;58304;53.104;6.022;2022-10-16T10:11:57;27.50;97.50
70726;DHT22;58304;53.104;6.022;2022-10-16T10:14:36;27.60;96.50
70726;DHT22;58304;53.104;6.022;2022-10-16T10:27:49;26.00;96.10
70726;DHT22;58304;53.104;6.022;2022-10-16T10:33:45;26.70;95.50
70726;DHT22;58304;53.104;6.022;2022-10-16T10:36:37;26.60;93.90
70726;DHT22;58304;53.104;6.022;2022-10-16T10:39:15;26.60;93.80
70726;DHT22;58304;53.104;6.022;2022-10-16T10:45:01;26.00;94.10
70726;DHT22;58304;53.104;6.022;2022-10-16T10:58:58;25.30;93.40
70726;DHT22;58304;53.104;6.022;2022-10-16T11:01:50;24.40;94.70
70726;DHT22;58304;53.104;6.022;2022-10-16T11:04:46;23.90;94.30
70726;DHT22;58304;53.104;6.022;2022-10-16T11:07:43;23.10;94.60
70726;DHT22;58304;53.104;6.022;2022-10-16T11:10:26;22.60;95.40
70726;DHT22;58304;53.104;6.022;2022-10-16T11:13:01;21.50;97.00
70726;DHT22;58304;53.104;6.022;2022-10-16T11:15:33;20.90;97.20
70726;DHT22;58304;53.104;6.022;2022-10-16T11:18:06;20.50;98.20
70726;DHT22;58304;53.104;6.022;2022-10-16T11:20:47;20.40;98.00
70726;DHT22;58304;53.104;6.022;2022-10-16T11:25:49;20.30;98.20
70726;DHT22;58304;53.104;6.022;2022-10-16T11:28:35;20.30;98.40
70726;DHT22;58304;53.104;6.022;2022-10-16T11:34:22;20.80;98.20
70726;DHT22;58304;53.104;6.022;2022-10-16T11:36:56;21.30;98.20
70726;DHT22;58304;53.104;6.022;2022-10-16T11:39:29;21.50;98.10
70726;DHT22;58304;53.104;6.022;2022-10-16T11:45:22;21.90;97.80
70726;DHT22;58304;53.104;6.022;2022-10-16T11:50:53;22.50;97.40
70726;DHT22;58304;53.104;6.022;2022-10-16T11:53:24;22.60;97.60
70726;DHT22;58304;53.104;6.022;2022-10-16T11:55:54;22.90;97.70
70726;DHT22;58304;53.104;6.022;2022-10-16T12:06:37;23.40;95.10
70726;DHT22;58304;53.104;6.022;2022-10-16T12:09:05;23.40;95.90
70726;DHT22;58304;53.104;6.022;2022-10-16T12:11:38;23.40;95.40
70726;DHT22;58304;53.104;6.022;2022-10-16T12:14:19;23.20;95.40
70726;DHT22;58304;53.104;6.022;2022-10-16T12:19:20;23.00;94.10
70726;DHT22;58304;53.104;6.022;2022-10-16T12:21:46;22.90;93.70
70726;DHT22;58304;53.104;6.022;2022-10-16T12:24:31;22.80;94.00
70726;DHT22;58304;53.104;6.022;2022-10-16T12:26:57;22.90;94.10
70726;DHT22;58304;53.104;6.022;2022-10-16T12:29:29;22.70;94.60
70726;DHT22;58304;53.104;6.022;2022-10-16T12:31:57;22.80;94.30
70726;DHT22;58304;53.104;6.022;2022-10-16T12:34:28;22.70;94.30
70726;DHT22;58304;53.104;6.022;2022-10-16T12:36:54;22.50;94.00
70726;DHT22;58304;53.104;6.022;2022-10-16T12:39:23;22.50;94.10
70726;DHT22;58304;53.104;6.022;2022-10-16T12:42:04;22.30;94.30
70726;DHT22;58304;53.104;6.022;2022-10-16T12:44:36;22.30;93.70
70726;DHT22;58304;53.104;6.022;2022-10-16T12:47:02;22.20;93.30
70726;DHT22;58304;53.104;6.022;2022-10-16T12:51:54;22.00;93.40
70726;DHT22;58304;53.104;6.022;2022-10-16T12:54:29;21.80;93.80
70726;DHT22;58304;53.104;6.022;2022-10-16T13:00:18;21.70;94.10
70726;DHT22;58304;53.104;6.022;2022-10-16T13:06:02;21.60;94.20
70726;DHT22;58304;53.104;6.022;2022-10-16T13:22:27;22.00;94.30
70726;DHT22;58304;53.104;6.022;2022-10-16T13:25:28;21.80;93.90
70726;DHT22;58304;53.104;6.022;2022-10-16T13:28:03;21.70;93.70
70726;DHT22;58304;53.104;6.022;2022-10-16T13:30:30;21.50;93.60
70726;DHT22;58304;53.104;6.022;2022-10-16T13:33:07;21.40;93.80
70726;DHT22;58304;53.104;6.022;2022-10-16T13:35:47;21.20;93.90
70726;DHT22;58304;53.104;6.022;2022-10-16T13:38:19;21.30;94.30
70726;DHT22;58304;53.104;6.022;2022-10-16T13:40:56;21.40;94.80
70726;DHT22;58304;53.104;6.022;2022-10-16T13:43:34;21.60;95.10
70726;DHT22;58304;53.104;6.022;2022-10-16T13:46:12;21.80;95.20
70726;DHT22;58304;53.104;6.022;2022-10-16T13:48:40;21.90;94.80
70726;DHT22;58304;53.104;6.022;2022-10-16T13:51:16;21.90;94.60
70726;DHT22;58304;53.104;6.022;2022-10-16T13:53:43;21.90;94.20
70726;DHT22;58304;53.104;6.022;2022-10-16T13:56:16;21.90;94.10
70726;DHT22;58304;53.104;6.022;2022-10-16T13:58:42;22.10;94.60
70726;DHT22;58304;53.104;6.022;2022-10-16T14:01:24;22.00;94.80
70726;DHT22;58304;53.104;6.022;2022-10-16T14:03:51;22.30;94.30
70726;DHT22;58304;53.104;6.022;2022-10-16T14:06:20;22.10;94.10
70726;DHT22;58304;53.104;6.022;2022-10-16T14:11:25;22.30;94.40
70726;DHT22;58304;53.104;6.022;2022-10-16T14:13:51;22.30;94.50
70726;DHT22;58304;53.104;6.022;2022-10-16T14:16:21;22.20;94.30
70726;DHT22;58304;53.104;6.022;2022-10-16T14:21:23;21.90;94.20
70726;DHT22;58304;53.104;6.022;2022-10-16T14:23:50;21.70;94.00
70726;DHT22;58304;53.104;6.022;2022-10-16T14:26:18;21.50;94.00
70726;DHT22;58304;53.104;6.022;2022-10-16T14:28:45;21.30;94.40
70726;DHT22;58304;53.104;6.022;2022-10-16T14:31:32;21.20;94.60
70726;DHT22;58304;53.104;6.022;2022-10-16T14:33:58;21.10;95.20
70726;DHT22;58304;53.104;6.022;2022-10-16T14:36:26;21.10;95.30
70726;DHT22;58304;53.104;6.022;2022-10-16T14:39:04;21.00;95.60
70726;DHT22;58304;53.104;6.022;2022-10-16T14:41:32;20.80;96.00
70726;DHT22;58304;53.104;6.022;2022-10-16T14:44:06;20.60;96.10
70726;DHT22;58304;53.104;6.022;2022-10-16T14:46:42;20.50;96.30
70726;DHT22;58304;53.104;6.022;2022-10-16T14:51:34;20.10;96.80
70726;DHT22;58304;53.104;6.022;2022-10-16T14:53:59;20.00;97.10
70726;DHT22;58304;53.104;6.022;2022-10-16T14:56:34;19.90;97.30
70726;DHT22;58304;53.104;6.022;2022-10-16T14:59:10;19.70;97.90
70726;DHT22;58304;53.104;6.022;2022-10-16T15:01:38;19.50;98.20
70726;DHT22;58304;53.104;6.022;2022-10-16T15:04:04;19.40;98.30
70726;DHT22;58304;53.104;6.022;2022-10-16T15:06:29;19.30;98.40
70726;DHT22;58304;53.104;6.022;2022-10-16T15:08:55;19.20;98.60
70726;DHT22;58304;53.104;6.022;2022-10-16T15:11:20;19.10;98.90
70726;DHT22;58304;53.104;6.022;2022-10-16T15:13:46;19.00;99.20
70726;DHT22;58304;53.104;6.022;2022-10-16T15:16:14;18.80;99.80
70726;DHT22;58304;53.104;6.022;2022-10-16T15:18:41;18.70;99.90
70726;DHT22;58304;53.104;6.022;2022-10-16T15:21:06;18.70;99.90
70726;DHT22;58304;53.104;6.022;2022-10-16T15:23:32;18.60;99.90
70726;DHT22;58304;53.104;6.022;2022-10-16T15:25:58;18.50;99.90
70726;DHT22;58304;53.104;6.022;2022-10-16T15:28:25;18.50;99.90
70726;DHT22;58304;53.104;6.022;2022-10-16T15:30:53;18.30;99.90
70726;DHT22;58304;53.104;6.022;2022-10-16T15:33:24;18.10;99.90
70726;DHT22;58304;53.104;6.022;2022-10-16T15:35:53;18.00;99.90
70726;DHT22;58304;53.104;6.022;2022-10-16T15:38:20;17.80;99.90
70726;DHT22;58304;53.104;6.022;2022-10-16T15:40:47;17.70;99.90
70726;DHT22;58304;53.104;6.022;2022-10-16T15:43:13;17.60;99.90
70726;DHT22;58304;53.104;6.022;2022-10-16T15:45:39;17.50;99.90
70726;DHT22;58304;53.104;6.022;2022-10-16T15:48:05;17.10;99.90
70726;DHT22;58304;53.104;6.022;2022-10-16T15:50:31;16.90;99.90
70726;DHT22;58304;53.104;6.022;2022-10-16T15:52:57;16.80;99.90
70726;DHT22;58304;53.104;6.022;2022-10-16T15:55:23;16.70;99.90
70726;DHT22;58304;53.104;6.022;2022-10-16T15:57:48;16.60;99.90
70726;DHT22;58304;53.104;6.022;2022-10-16T16:00:17;16.70;99.90
70726;DHT22;58304;53.104;6.022;2022-10-16T16:02:51;16.60;99.90
70726;DHT22;58304;53.104;6.022;2022-10-16T16:05:17;16.60;99.90
70726;DHT22;58304;53.104;6.022;2022-10-16T16:07:43;16.50;99.90
70726;DHT22;58304;53.104;6.022;2022-10-16T16:10:10;16.40;99.90
70726;DHT22;58304;53.104;6.022;2022-10-16T16:12:36;16.30;99.90
70726;DHT22;58304;53.104;6.022;2022-10-16T16:15:06;16.10;99.90
70726;DHT22;58304;53.104;6.022;2022-10-16T16:17:33;15.80;99.90
70726;DHT22;58304;53.104;6.022;2022-10-16T16:19:59;15.50;99.90
70726;DHT22;58304;53.104;6.022;2022-10-16T16:22:25;15.40;99.90
70726;DHT22;58304;53.104;6.022;2022-10-16T16:24:50;15.20;99.90
70726;DHT22;58304;53.104;6.022;2022-10-16T16:27:16;15.20;99.90
70726;DHT22;58304;53.104;6.022;2022-10-16T16:29:42;15.20;99.90
70726;DHT22;58304;53.104;6.022;2022-10-16T16:32:07;15.10;99.90
70726;DHT22;58304;53.104;6.022;2022-10-16T16:34:33;15.00;99.90
70726;DHT22;58304;53.104;6.022;2022-10-16T16:36:58;14.80;99.90
70726;DHT22;58304;53.104;6.022;2022-10-16T16:39:24;14.60;99.90
70726;DHT22;58304;53.104;6.022;2022-10-16T16:41:50;14.50;99.90
70726;DHT22;58304;53.104;6.022;2022-10-16T16:44:16;14.40;99.90
70726;DHT22;58304;53.104;6.022;2022-10-16T16:46:43;14.30;99.90
70726;DHT22;58304;53.104;6.022;2022-10-16T16:49:11;14.30;99.90
70726;DHT22;58304;53.104;6.022;2022-10-16T16:51:37;14.30;99.90
70726;DHT22;58304;53.104;6.022;2022-10-16T16:54:04;14.40;99.90
70726;DHT22;58304;53.104;6.022;2022-10-16T16:56:29;14.30;99.90
70726;DHT22;58304;53.104;6.022;2022-10-16T16:58:56;14.30;99.90
70726;DHT22;58304;53.104;6.022;2022-10-16T17:01:25;14.30;99.90
70726;DHT22;58304;53.104;6.022;2022-10-16T17:03:53;14.20;99.90
70726;DHT22;58304;53.104;6.022;2022-10-16T17:06:24;14.00;99.90
70726;DHT22;58304;53.104;6.022;2022-10-16T17:08:50;13.80;99.90
70726;DHT22;58304;53.104;6.022;2022-10-16T17:11:21;13.80;99.90
70726;DHT22;58304;53.104;6.022;2022-10-16T17:13:47;13.80;99.90
70726;DHT22;58304;53.104;6.022;2022-10-16T17:16:13;13.70;99.90
70726;DHT22;58304;53.104;6.022;2022-10-16T17:18:39;13.60;99.90
70726;DHT22;58304;53.104;6.022;2022-10-16T17:21:07;13.60;99.90
70726;DHT22;58304;53.104;6.022;2022-10-16T17:23:34;13.50;99.90
70726;DHT22;58304;53.104;6.022;2022-10-16T17:26:21;13.40;99.90
70726;DHT22;58304;53.104;6.022;2022-10-16T17:28:54;13.40;99.90